Terminal Aerodrome Forecast
Issued by NWS

Home | Current Version | Previous Version | Text Only | Print | Product List | Glossary On
Versions: 1 2 3 4 5 6 7 8 9 10 11 12 13 14
000
FTUS45 KMSO 030520
TAFSMN
TAF
KSMN 030520Z 0306/0406 01015G20KT P6SM BKN060
     FM030900 03010KT P6SM VCSH BKN040
     FM031300 VRB06KT P6SM SCT090
     FM040100 00000KT P6SM FEW150
      AMD LTD TO CLD VIS AND WIND=

USA.gov is the U.S. government's official web portal to all federal, state and local government web resources and services.